createdAt,value
2018-07-14T00:00:27.442Z,6.43
2018-07-14T00:02:54.689Z,7.00
2018-07-14T00:05:21.979Z,6.93
2018-07-14T00:07:49.215Z,6.87
2018-07-14T00:10:16.510Z,6.33
2018-07-14T00:12:43.886Z,6.10
2018-07-14T00:15:11.201Z,6.73
2018-07-14T00:20:28.346Z,7.27
2018-07-14T00:22:55.574Z,6.63
2018-07-14T00:25:27.419Z,6.83
2018-07-14T00:27:54.669Z,7.40
2018-07-14T00:30:21.922Z,7.53
2018-07-14T00:32:49.166Z,6.63
2018-07-14T00:35:16.460Z,6.83
2018-07-14T00:37:43.726Z,7.53
2018-07-14T00:40:11.055Z,6.63
2018-07-14T00:42:38.285Z,6.83
2018-07-14T00:45:05.609Z,7.10
2018-07-14T00:47:32.861Z,7.00
2018-07-14T00:50:00.123Z,6.50
2018-07-14T00:52:27.370Z,7.00
2018-07-14T00:54:54.628Z,7.20
2018-07-14T00:57:21.847Z,6.23
2018-07-14T00:59:49.099Z,7.33
2018-07-14T01:02:16.355Z,7.47
2018-07-14T01:04:43.622Z,7.70
2018-07-14T01:07:10.895Z,7.83
2018-07-14T01:09:38.146Z,7.57
2018-07-14T01:12:05.422Z,7.47
2018-07-14T01:14:32.704Z,7.50
2018-07-14T01:16:59.992Z,7.70
2018-07-14T01:19:27.278Z,7.97
2018-07-14T01:21:54.560Z,7.67
2018-07-14T01:24:21.845Z,8.33
2018-07-14T01:26:49.117Z,7.60
2018-07-14T01:29:16.446Z,7.83
2018-07-14T01:31:43.709Z,7.40
2018-07-14T01:34:11.015Z,7.97
2018-07-14T01:36:38.281Z,8.60
2018-07-14T01:39:06.214Z,8.50
2018-07-14T01:41:33.532Z,8.40
2018-07-14T01:44:00.743Z,8.23
2018-07-14T01:46:28.032Z,7.90
2018-07-14T01:48:55.266Z,8.43
2018-07-14T01:51:22.530Z,8.47
2018-07-14T01:53:49.758Z,8.30
2018-07-14T01:56:17.012Z,8.47
2018-07-14T01:58:44.258Z,8.30
2018-07-14T02:01:11.529Z,8.50
2018-07-14T02:03:38.785Z,8.73
2018-07-14T02:06:06.064Z,8.50
2018-07-14T02:08:33.365Z,9.00
2018-07-14T02:11:00.730Z,9.20
2018-07-14T02:13:27.986Z,8.60
2018-07-14T02:15:55.266Z,8.30
2018-07-14T02:18:22.505Z,8.83
2018-07-14T02:20:49.769Z,9.50
2018-07-14T02:23:17.010Z,7.53
2018-07-14T02:25:44.291Z,9.17
2018-07-14T02:28:11.546Z,8.23
2018-07-14T02:30:38.822Z,8.43
2018-07-14T02:33:06.084Z,8.40
2018-07-14T02:35:33.346Z,9.10
2018-07-14T02:38:00.661Z,9.77
2018-07-14T02:40:27.947Z,8.30
2018-07-14T02:42:55.182Z,8.77
2018-07-14T02:45:22.463Z,9.00
2018-07-14T02:47:49.725Z,9.57
2018-07-14T02:50:17.002Z,9.70
2018-07-14T02:52:44.254Z,9.47
2018-07-14T02:55:11.559Z,9.80
2018-07-14T02:57:38.832Z,9.93
2018-07-14T03:00:06.178Z,10.17
2018-07-14T03:02:33.548Z,9.10
2018-07-14T03:05:00.884Z,9.87
2018-07-14T03:07:29.146Z,9.30
2018-07-14T03:09:56.476Z,9.37
2018-07-14T03:12:24.406Z,10.90
2018-07-14T03:14:51.906Z,10.27
2018-07-14T03:17:19.286Z,10.80
2018-07-14T03:19:47.905Z,10.70
2018-07-14T03:22:16.771Z,10.43
2018-07-14T03:24:45.266Z,9.77
2018-07-14T03:27:12.677Z,10.37
2018-07-14T03:29:40.007Z,10.03
2018-07-14T03:32:08.507Z,11.73
2018-07-14T03:34:35.883Z,9.50
2018-07-14T03:37:03.218Z,9.80
2018-07-14T03:39:30.543Z,9.63
2018-07-14T03:41:57.936Z,9.80
2018-07-14T03:44:25.237Z,10.83
2018-07-14T03:46:52.571Z,9.60
2018-07-14T03:49:20.498Z,10.17
2018-07-14T03:51:47.819Z,10.47
2018-07-14T03:54:15.169Z,10.00
2018-07-14T03:56:42.546Z,10.57
2018-07-14T03:59:09.866Z,9.73
2018-07-14T04:01:37.342Z,11.40
2018-07-14T04:04:04.971Z,9.73
2018-07-14T04:06:32.364Z,10.73
2018-07-14T04:08:59.674Z,10.03
2018-07-14T04:11:27.041Z,10.57
2018-07-14T04:13:54.330Z,9.83
2018-07-14T04:16:21.687Z,10.43
2018-07-14T04:18:48.999Z,10.53
2018-07-14T04:21:16.380Z,10.80
2018-07-14T04:23:43.855Z,9.90
2018-07-14T04:26:12.059Z,10.67
2018-07-14T04:28:39.382Z,10.30
2018-07-14T04:31:07.086Z,10.23
2018-07-14T04:33:34.402Z,10.13
2018-07-14T04:36:02.494Z,9.57
2018-07-14T04:38:29.899Z,9.80
2018-07-14T04:40:57.458Z,9.97
2018-07-14T04:43:24.822Z,9.67
2018-07-14T04:45:52.114Z,9.53
2018-07-14T04:48:19.471Z,9.03
2018-07-14T04:50:46.871Z,10.67
2018-07-14T04:53:14.271Z,9.07
2018-07-14T04:55:41.630Z,9.47
2018-07-14T04:58:09.053Z,9.13
2018-07-14T05:00:36.336Z,8.87
2018-07-14T05:03:03.697Z,9.60
2018-07-14T05:05:30.985Z,8.80
2018-07-14T05:07:58.339Z,9.13
2018-07-14T05:10:25.654Z,9.53
2018-07-14T05:12:53.168Z,9.50
2018-07-14T05:15:21.097Z,7.73
2018-07-14T05:17:48.452Z,8.73
2018-07-14T05:20:15.825Z,8.57
2018-07-14T05:22:43.218Z,8.07
2018-07-14T05:25:10.546Z,8.23
2018-07-14T05:27:37.910Z,8.97
2018-07-14T05:30:05.234Z,8.73
2018-07-14T05:32:32.643Z,8.70
2018-07-14T05:34:59.956Z,8.67
2018-07-14T05:37:27.328Z,8.17
2018-07-14T05:39:54.640Z,8.10
2018-07-14T05:42:22.060Z,9.47
2018-07-14T05:44:49.399Z,8.87
2018-07-14T05:47:16.742Z,8.93
2018-07-14T05:49:44.064Z,7.53
2018-07-14T05:52:12.228Z,8.20
2018-07-14T05:54:39.550Z,8.47
2018-07-14T05:57:06.855Z,7.30
2018-07-14T05:59:34.162Z,7.33
2018-07-14T06:02:01.513Z,7.80
2018-07-14T06:04:28.820Z,8.07
2018-07-14T06:06:56.144Z,7.80
2018-07-14T06:09:23.475Z,6.83
2018-07-14T06:11:50.792Z,7.10
2018-07-14T06:14:18.217Z,5.67
2018-07-14T06:16:45.478Z,6.13
2018-07-14T06:19:12.800Z,7.00
2018-07-14T06:21:40.731Z,8.00
2018-07-14T06:24:08.094Z,7.60
2018-07-14T06:26:35.441Z,6.70
2018-07-14T06:29:02.774Z,7.27
2018-07-14T06:31:30.106Z,7.80
2018-07-14T06:33:57.521Z,6.92
2018-07-14T06:36:24.789Z,7.23
2018-07-14T06:38:52.334Z,7.30
2018-07-14T06:41:19.690Z,7.05
2018-07-14T06:43:47.021Z,7.08
2018-07-14T06:46:14.382Z,7.37
2018-07-14T06:48:41.762Z,7.15
2018-07-14T06:51:09.112Z,7.00
2018-07-14T06:53:36.471Z,7.30
2018-07-14T06:56:03.814Z,6.10
2018-07-14T07:01:23.387Z,6.53
2018-07-14T07:03:50.714Z,7.37
2018-07-14T07:06:18.020Z,6.37
2018-07-14T07:08:45.375Z,7.70
2018-07-14T07:11:12.879Z,6.72
2018-07-14T07:13:41.036Z,7.08
2018-07-14T07:16:08.513Z,7.10
2018-07-14T07:18:35.997Z,7.25
2018-07-14T07:21:03.447Z,6.40
2018-07-14T07:23:30.978Z,7.33
2018-07-14T07:25:58.273Z,7.22
2018-07-14T07:28:25.628Z,7.22
2018-07-14T07:30:53.457Z,6.75
2018-07-14T07:33:20.797Z,7.33
2018-07-14T07:35:48.106Z,7.37
2018-07-14T07:38:15.462Z,7.35
2018-07-14T07:40:43.074Z,6.80
2018-07-14T07:43:11.045Z,6.72
2018-07-14T07:45:38.339Z,7.85
2018-07-14T07:48:05.661Z,7.45
2018-07-14T07:50:35.194Z,6.72
2018-07-14T07:53:02.559Z,7.40
2018-07-14T07:55:29.895Z,7.80
2018-07-14T07:57:57.127Z,7.60
2018-07-14T08:00:24.639Z,6.75
2018-07-14T08:02:51.992Z,6.97
2018-07-14T08:05:19.330Z,6.40
2018-07-14T08:07:46.655Z,6.35
2018-07-14T08:10:13.955Z,5.15
2018-07-14T08:12:41.237Z,5.10
2018-07-14T08:15:08.598Z,4.70
2018-07-14T08:17:35.957Z,4.83
2018-07-14T08:20:03.375Z,3.75
2018-07-14T08:22:30.681Z,3.62
2018-07-14T08:24:58.053Z,4.50
2018-07-14T08:27:25.408Z,4.62
2018-07-14T08:29:52.768Z,5.45
2018-07-14T08:32:20.040Z,4.50
2018-07-14T08:34:47.391Z,5.72
2018-07-14T08:37:14.719Z,5.83
2018-07-14T08:39:42.070Z,6.72
2018-07-14T08:42:09.347Z,5.80
2018-07-14T08:44:36.865Z,5.67
2018-07-14T08:47:04.495Z,6.03
2018-07-14T08:49:32.827Z,5.40
2018-07-14T08:52:00.137Z,4.15
2018-07-14T08:54:27.575Z,3.10
2018-07-14T08:56:54.877Z,3.83
2018-07-14T08:59:22.188Z,3.87
2018-07-14T09:01:49.495Z,3.25
2018-07-14T09:04:16.943Z,3.22
2018-07-14T09:06:44.297Z,2.80
2018-07-14T09:09:11.689Z,3.45
2018-07-14T09:11:59.021Z,4.00
2018-07-14T09:14:26.389Z,2.33
2018-07-14T09:16:53.667Z,2.80
2018-07-14T09:19:20.970Z,2.47
2018-07-14T09:21:48.281Z,2.40
2018-07-14T09:24:18.518Z,2.15
2018-07-14T09:26:45.797Z,1.55
2018-07-14T09:29:13.170Z,2.10
2018-07-14T09:31:40.509Z,1.57
2018-07-14T09:34:08.047Z,1.98
2018-07-14T09:36:35.338Z,2.27
2018-07-14T09:39:04.114Z,2.42
2018-07-14T09:41:31.455Z,2.58
2018-07-14T09:43:58.755Z,2.65
2018-07-14T09:46:26.137Z,2.33
2018-07-14T09:49:00.228Z,2.10
2018-07-14T09:51:27.551Z,2.10
2018-07-14T09:53:55.089Z,1.70
2018-07-14T09:56:22.458Z,1.70
2018-07-14T09:58:49.772Z,1.00
2018-07-14T10:01:17.141Z,1.10
2018-07-14T10:03:44.491Z,1.30
2018-07-14T10:06:12.285Z,1.42
2018-07-14T10:08:39.593Z,1.67
2018-07-14T10:11:06.930Z,1.67
2018-07-14T10:13:34.393Z,2.45
2018-07-14T10:16:01.748Z,2.60
2018-07-14T10:18:30.689Z,1.85
2018-07-14T10:20:58.040Z,2.22
2018-07-14T10:23:25.335Z,1.90
2018-07-14T10:25:52.753Z,1.90
2018-07-14T10:28:20.033Z,2.42
2018-07-14T10:30:47.371Z,2.00
2018-07-14T10:33:14.708Z,2.30
2018-07-14T10:35:42.027Z,2.40
2018-07-14T10:38:09.315Z,2.22
2018-07-14T10:40:36.822Z,1.75
2018-07-14T10:43:04.188Z,1.72
2018-07-14T10:45:32.700Z,1.90
2018-07-14T10:48:00.805Z,1.52
2018-07-14T10:50:28.200Z,1.98
2018-07-14T10:52:55.527Z,2.10
2018-07-14T10:55:22.895Z,2.12
2018-07-14T10:57:50.820Z,2.25
2018-07-14T11:00:18.187Z,3.00
2018-07-14T11:02:45.455Z,6.97
2018-07-14T11:05:12.965Z,1.95
2018-07-14T11:07:41.011Z,1.67
2018-07-14T11:10:08.354Z,1.55
2018-07-14T11:12:38.558Z,1.77
2018-07-14T11:15:05.937Z,2.00
2018-07-14T11:17:33.305Z,1.42
2018-07-14T11:20:00.642Z,1.70
2018-07-14T11:22:27.994Z,2.10
2018-07-14T11:24:55.309Z,1.50
2018-07-14T11:27:22.663Z,1.72
2018-07-14T11:29:49.949Z,2.02
2018-07-14T11:32:17.250Z,1.60
2018-07-14T11:34:44.990Z,1.52
2018-07-14T11:37:13.256Z,1.67
2018-07-14T11:39:40.555Z,2.08
2018-07-14T11:42:07.924Z,2.00
2018-07-14T11:44:35.275Z,1.85
2018-07-14T11:47:02.774Z,2.35
2018-07-14T11:49:30.555Z,2.40
2018-07-14T11:51:57.934Z,2.05
2018-07-14T11:54:25.227Z,2.00
2018-07-14T11:56:52.743Z,1.87
2018-07-14T11:59:20.040Z,1.80
2018-07-14T12:01:47.338Z,2.17
2018-07-14T12:04:14.714Z,2.02
2018-07-14T12:06:42.086Z,2.22
2018-07-14T12:09:09.571Z,1.75
2018-07-14T12:11:36.965Z,1.70
2018-07-14T12:14:04.278Z,2.00
2018-07-14T12:16:32.211Z,1.95
2018-07-14T12:18:59.504Z,1.90
2018-07-14T12:21:26.865Z,1.57
2018-07-14T12:23:54.167Z,1.95
2018-07-14T12:26:22.090Z,2.25
2018-07-14T12:28:49.804Z,1.90
2018-07-14T12:31:17.138Z,1.55
2018-07-14T12:33:45.099Z,2.30
2018-07-14T12:36:13.078Z,2.37
2018-07-14T12:38:40.526Z,2.20
2018-07-14T12:41:07.893Z,1.60
2018-07-14T12:43:35.237Z,1.82
2018-07-14T12:46:02.604Z,2.02
2018-07-14T12:48:29.818Z,1.98
2018-07-14T12:50:57.359Z,2.15
2018-07-14T12:53:25.306Z,2.00
2018-07-14T12:55:52.621Z,2.00
2018-07-14T12:58:19.972Z,2.42
2018-07-14T13:00:47.329Z,2.87
2018-07-14T13:03:14.750Z,2.22
2018-07-14T13:05:42.098Z,2.35
2018-07-14T13:08:09.456Z,2.30
2018-07-14T13:10:36.858Z,2.10
2018-07-14T13:13:04.298Z,2.20
2018-07-14T13:15:31.642Z,2.12
2018-07-14T13:17:59.025Z,2.30
2018-07-14T13:20:27.081Z,2.45
2018-07-14T13:22:54.638Z,2.02
2018-07-14T13:25:21.971Z,2.10
2018-07-14T13:27:49.329Z,2.10
2018-07-14T13:30:16.809Z,2.42
2018-07-14T13:32:44.109Z,2.40
2018-07-14T13:35:11.950Z,2.05
2018-07-14T13:37:39.350Z,2.22
2018-07-14T13:40:07.697Z,2.00
2018-07-14T13:42:35.028Z,2.50
2018-07-14T13:45:02.363Z,2.17
2018-07-14T13:47:29.700Z,2.20
2018-07-14T13:49:57.030Z,2.08
2018-07-14T13:52:24.430Z,2.45
2018-07-14T13:54:51.765Z,1.87
2018-07-14T13:57:19.110Z,2.10
2018-07-14T13:59:46.479Z,2.27
2018-07-14T14:02:13.846Z,2.17
2018-07-14T14:04:41.148Z,1.90
2018-07-14T14:07:08.492Z,1.87
2018-07-14T14:09:35.790Z,2.10
2018-07-14T14:12:03.266Z,2.20
2018-07-14T14:14:30.580Z,2.40
2018-07-14T14:16:57.961Z,1.95
2018-07-14T14:19:25.357Z,2.15
2018-07-14T14:21:52.701Z,2.25
2018-07-14T14:24:20.439Z,2.00
2018-07-14T14:26:47.905Z,2.20
2018-07-14T14:29:15.227Z,2.45
2018-07-14T14:31:42.591Z,2.00
2018-07-14T14:34:10.518Z,2.35
2018-07-14T14:36:38.457Z,2.15
2018-07-14T14:39:07.416Z,2.37
2018-07-14T14:41:34.769Z,1.95
2018-07-14T14:44:02.097Z,2.08
2018-07-14T14:46:29.388Z,2.00
2018-07-14T14:48:57.335Z,2.08
2018-07-14T14:51:24.645Z,2.45
2018-07-14T14:53:52.183Z,2.20
2018-07-14T14:56:19.498Z,2.05
2018-07-14T14:58:46.924Z,1.82
2018-07-14T15:01:14.322Z,2.15
2018-07-14T15:03:41.823Z,2.00
2018-07-14T15:06:09.160Z,2.12
2018-07-14T15:08:36.519Z,2.33
2018-07-14T15:11:03.884Z,2.25
2018-07-14T15:13:31.334Z,2.27
2018-07-14T15:15:58.919Z,2.33
2018-07-14T15:18:27.437Z,2.02
2018-07-14T15:20:54.868Z,2.40
2018-07-14T15:23:22.218Z,2.60
2018-07-14T15:28:23.545Z,2.50
2018-07-14T15:30:50.874Z,1.95
2018-07-14T15:33:18.361Z,2.72
2018-07-14T15:35:45.940Z,2.77
2018-07-14T15:38:13.310Z,2.50
2018-07-14T15:40:40.663Z,2.17
2018-07-14T15:43:07.987Z,2.52
2018-07-14T15:45:35.853Z,2.50
2018-07-14T15:48:04.108Z,2.22
2018-07-14T15:50:31.427Z,2.40
2018-07-14T15:52:58.951Z,2.15
2018-07-14T15:55:26.246Z,2.42
2018-07-14T15:57:53.655Z,2.20
2018-07-14T16:00:20.989Z,2.62
2018-07-14T16:02:48.311Z,2.02
2018-07-14T16:05:15.716Z,2.72
2018-07-14T16:07:43.098Z,2.90
2018-07-14T16:10:10.475Z,2.37
2018-07-14T16:12:37.798Z,2.25
2018-07-14T16:15:05.214Z,2.10
2018-07-14T16:17:32.645Z,2.10
2018-07-14T16:20:00.047Z,2.12
2018-07-14T16:22:27.428Z,1.95
2018-07-14T16:24:54.817Z,2.10
2018-07-14T16:27:22.144Z,2.72
2018-07-14T16:29:49.493Z,2.80
2018-07-14T16:32:16.813Z,2.30
2018-07-14T16:34:44.164Z,2.15
2018-07-14T16:37:11.697Z,2.98
2018-07-14T16:39:39.725Z,2.80
2018-07-14T16:42:07.082Z,2.72
2018-07-14T16:44:34.593Z,3.15
2018-07-14T16:47:02.763Z,3.50
2018-07-14T16:49:30.080Z,3.55
2018-07-14T16:51:57.402Z,2.45
2018-07-14T16:54:24.722Z,2.25
2018-07-14T16:56:52.612Z,2.83
2018-07-14T16:59:20.012Z,3.33
2018-07-14T17:01:47.339Z,2.77
2018-07-14T17:04:14.803Z,2.83
2018-07-14T17:06:42.640Z,2.98
2018-07-14T17:09:10.479Z,3.17
2018-07-14T17:11:37.815Z,3.17
2018-07-14T17:14:05.166Z,2.42
2018-07-14T17:16:32.446Z,2.62
2018-07-14T17:18:59.818Z,2.52
2018-07-14T17:21:27.163Z,2.58
2018-07-14T17:23:54.794Z,2.80
2018-07-14T17:26:22.346Z,2.60
2018-07-14T17:28:50.053Z,2.35
2018-07-14T17:31:17.532Z,4.00
2018-07-14T17:33:45.095Z,4.10
2018-07-14T17:36:12.662Z,3.40
2018-07-14T17:38:40.795Z,3.30
2018-07-14T17:41:09.297Z,3.37
2018-07-14T17:43:37.015Z,2.72
2018-07-14T17:46:04.830Z,3.35
2018-07-14T17:48:32.142Z,3.30
2018-07-14T17:50:59.561Z,3.25
2018-07-14T17:53:26.898Z,2.40
2018-07-14T17:55:54.382Z,2.25
2018-07-14T17:58:21.722Z,3.67
2018-07-14T18:00:49.126Z,2.65
2018-07-14T18:03:16.532Z,3.00
2018-07-14T18:05:43.909Z,7.47
2018-07-14T18:08:11.593Z,4.50
2018-07-14T18:10:39.001Z,5.08
2018-07-14T18:13:07.636Z,16.23
2018-07-14T18:15:35.550Z,7.97
2018-07-14T18:18:03.020Z,3.52
2018-07-14T18:20:30.363Z,3.05
2018-07-14T18:22:58.521Z,2.67
2018-07-14T18:25:25.860Z,2.47
2018-07-14T18:27:53.225Z,2.62
2018-07-14T18:30:20.622Z,2.87
2018-07-14T18:32:47.951Z,2.92
2018-07-14T18:35:15.307Z,2.80
2018-07-14T18:37:43.391Z,2.87
2018-07-14T18:40:11.734Z,3.20
2018-07-14T18:42:39.823Z,3.25
2018-07-14T18:45:07.378Z,2.95
2018-07-14T18:47:34.786Z,3.55
2018-07-14T18:50:02.228Z,3.72
2018-07-14T18:52:29.762Z,3.37
2018-07-14T18:54:57.134Z,3.45
2018-07-14T18:57:24.589Z,3.45
2018-07-14T18:59:51.997Z,2.62
2018-07-14T19:02:19.431Z,3.25
2018-07-14T19:04:46.783Z,3.37
2018-07-14T19:07:14.218Z,3.50
2018-07-14T19:09:41.814Z,3.13
2018-07-14T19:12:09.251Z,3.33
2018-07-14T19:14:36.781Z,3.33
2018-07-14T19:17:04.950Z,3.60
2018-07-14T19:19:32.351Z,3.67
2018-07-14T19:22:00.033Z,4.00
2018-07-14T19:24:27.460Z,3.13
2018-07-14T19:26:55.032Z,3.60
2018-07-14T19:29:23.304Z,3.97
2018-07-14T19:31:52.540Z,3.60
2018-07-14T19:34:20.203Z,4.07
2018-07-14T19:36:47.823Z,3.80
2018-07-14T19:39:15.287Z,4.27
2018-07-14T19:41:42.760Z,4.17
2018-07-14T19:44:10.170Z,3.60
2018-07-14T19:46:37.569Z,4.50
2018-07-14T19:49:04.937Z,4.47
2018-07-14T19:51:32.369Z,5.07
2018-07-14T19:53:59.766Z,4.77
2018-07-14T19:56:27.139Z,4.73
2018-07-14T19:58:54.470Z,3.70
2018-07-14T20:01:21.774Z,4.53
2018-07-14T20:03:49.108Z,4.63
2018-07-14T20:06:16.552Z,4.80
2018-07-14T20:08:43.884Z,4.77
2018-07-14T20:11:11.981Z,4.60
2018-07-14T20:13:39.285Z,4.43
2018-07-14T20:16:07.310Z,5.47
2018-07-14T20:18:34.769Z,4.20
2018-07-14T20:21:02.097Z,4.00
2018-07-14T20:23:29.474Z,4.83
2018-07-14T20:25:56.924Z,3.90
2018-07-14T20:28:24.330Z,3.83
2018-07-14T20:30:51.629Z,4.47
2018-07-14T20:33:18.920Z,3.97
2018-07-14T20:35:46.543Z,3.93
2018-07-14T20:38:13.879Z,6.03
2018-07-14T20:40:41.190Z,6.37
2018-07-14T20:43:08.601Z,7.07
2018-07-14T20:45:35.937Z,6.43
2018-07-14T20:48:03.258Z,5.07
2018-07-14T20:50:30.562Z,4.77
2018-07-14T20:52:57.869Z,4.60
2018-07-14T20:55:25.855Z,4.60
2018-07-14T20:57:53.158Z,5.30
2018-07-14T21:00:20.390Z,5.17
2018-07-14T21:02:47.634Z,5.40
2018-07-14T21:05:14.878Z,5.30
2018-07-14T21:07:42.123Z,5.90
2018-07-14T21:10:09.356Z,4.90
2018-07-14T21:12:36.776Z,5.20
2018-07-14T21:15:03.950Z,4.57
2018-07-14T21:17:31.192Z,4.87
2018-07-14T21:19:58.433Z,4.20
2018-07-14T21:22:25.723Z,4.13
2018-07-14T21:24:53.006Z,4.80
2018-07-14T21:27:20.237Z,4.10
2018-07-14T21:29:47.473Z,4.30
2018-07-14T21:32:14.760Z,4.57
2018-07-14T21:34:42.006Z,4.80
2018-07-14T21:37:09.255Z,4.57
2018-07-14T21:39:36.491Z,5.47
2018-07-14T21:42:03.927Z,4.53
2018-07-14T21:44:31.163Z,5.37
2018-07-14T21:46:58.454Z,4.77
2018-07-14T21:49:25.688Z,4.37
2018-07-14T21:51:52.959Z,4.77
2018-07-14T21:54:20.219Z,4.97
2018-07-14T21:56:47.476Z,4.57
2018-07-14T21:59:14.711Z,5.23
2018-07-14T22:01:47.649Z,5.13
2018-07-14T22:04:14.887Z,5.20
2018-07-14T22:06:42.149Z,5.27
2018-07-14T22:09:09.397Z,4.73
2018-07-14T22:11:36.650Z,5.07
2018-07-14T22:14:04.247Z,5.83
2018-07-14T22:16:31.530Z,4.90
2018-07-14T22:18:58.779Z,4.90
2018-07-14T22:21:26.034Z,5.27
2018-07-14T22:23:53.307Z,5.77
2018-07-14T22:26:20.534Z,6.13
2018-07-14T22:28:47.806Z,5.33
2018-07-14T22:31:15.036Z,4.43
2018-07-14T22:33:42.273Z,5.70
2018-07-14T22:36:09.493Z,4.80
2018-07-14T22:38:36.766Z,5.03
2018-07-14T22:41:03.998Z,5.30
2018-07-14T22:43:31.260Z,5.67
2018-07-14T22:45:58.481Z,4.63
2018-07-14T22:48:28.018Z,5.57
2018-07-14T22:50:55.278Z,5.93
2018-07-14T22:53:22.569Z,5.57
2018-07-14T22:55:49.794Z,5.10
2018-07-14T22:58:17.060Z,4.90
2018-07-14T23:00:44.309Z,5.37
2018-07-14T23:03:11.634Z,4.87
2018-07-14T23:05:38.857Z,5.10
2018-07-14T23:08:06.159Z,5.33
2018-07-14T23:10:33.407Z,5.60
2018-07-14T23:13:00.663Z,5.00
2018-07-14T23:15:27.912Z,6.00
2018-07-14T23:17:55.191Z,5.50
2018-07-14T23:20:22.422Z,5.17
2018-07-14T23:22:49.769Z,5.33
2018-07-14T23:25:16.988Z,5.47
2018-07-14T23:27:44.250Z,5.77
2018-07-14T23:30:11.478Z,6.07
2018-07-14T23:32:38.784Z,5.60
2018-07-14T23:35:06.046Z,5.40
2018-07-14T23:37:33.275Z,5.87
2018-07-14T23:40:00.528Z,5.37
2018-07-14T23:42:27.762Z,4.97
2018-07-14T23:44:55.007Z,5.47
2018-07-14T23:47:22.244Z,5.20
2018-07-14T23:49:49.494Z,5.70
2018-07-14T23:52:16.705Z,5.83
2018-07-14T23:54:44.038Z,5.60
2018-07-14T23:57:13.506Z,4.90
2018-07-14T23:59:40.756Z,5.80
